createdAt,value
2018-05-15T00:02:09.508Z,6.83
2018-05-15T00:04:36.959Z,6.80
2018-05-15T00:07:04.436Z,6.50
2018-05-15T00:09:31.903Z,6.07
2018-05-15T00:11:59.377Z,6.63
2018-05-15T00:14:26.859Z,6.70
2018-05-15T00:16:54.308Z,6.50
2018-05-15T00:19:21.791Z,7.57
2018-05-15T00:21:49.248Z,7.20
2018-05-15T00:24:16.740Z,7.60
2018-05-15T00:26:44.196Z,7.33
2018-05-15T00:29:11.712Z,7.97
2018-05-15T00:31:39.168Z,7.40
2018-05-15T00:34:06.634Z,8.13
2018-05-15T00:36:34.125Z,8.00
2018-05-15T00:39:01.585Z,8.10
2018-05-15T00:41:29.068Z,7.80
2018-05-15T00:43:57.352Z,7.20
2018-05-15T00:46:24.854Z,7.60
2018-05-15T00:48:52.325Z,7.10
2018-05-15T00:51:19.788Z,6.87
2018-05-15T00:53:47.276Z,6.70
2018-05-15T00:56:15.525Z,6.40
2018-05-15T00:58:42.997Z,5.50
2018-05-15T01:01:10.470Z,8.10
2018-05-15T01:03:38.693Z,6.10
2018-05-15T01:06:06.169Z,6.07
2018-05-15T01:08:34.388Z,6.77
2018-05-15T01:11:02.658Z,6.70
2018-05-15T01:13:30.123Z,5.87
2018-05-15T01:15:57.584Z,6.20
2018-05-15T01:18:25.077Z,5.83
2018-05-15T01:20:52.616Z,7.00
2018-05-15T01:23:20.113Z,7.03
2018-05-15T01:25:47.587Z,6.20
2018-05-15T01:28:15.076Z,6.27
2018-05-15T01:30:42.571Z,6.50
2018-05-15T01:33:10.037Z,6.23
2018-05-15T01:35:37.520Z,6.70
2018-05-15T01:38:05.003Z,6.20
2018-05-15T01:40:33.241Z,6.27
2018-05-15T01:43:00.726Z,6.80
2018-05-15T01:45:28.195Z,5.80
2018-05-15T01:47:56.441Z,6.90
2018-05-15T01:50:24.049Z,5.83
2018-05-15T01:52:51.509Z,6.63
2018-05-15T01:55:18.968Z,6.20
2018-05-15T01:57:46.453Z,6.10
2018-05-15T02:00:13.915Z,6.40
2018-05-15T02:02:41.382Z,7.20
2018-05-15T02:05:08.865Z,8.03
2018-05-15T02:07:36.321Z,8.27
2018-05-15T02:10:03.816Z,8.00
2018-05-15T02:12:31.356Z,8.20
2018-05-15T02:14:58.839Z,8.30
2018-05-15T02:17:26.339Z,8.30
2018-05-15T02:19:57.120Z,8.83
2018-05-15T02:22:25.356Z,9.10
2018-05-15T02:24:52.832Z,9.83
2018-05-15T02:27:20.345Z,9.13
2018-05-15T02:29:47.836Z,9.73
2018-05-15T02:32:15.295Z,8.53
2018-05-15T02:34:42.798Z,9.40
2018-05-15T02:37:10.256Z,8.50
2018-05-15T02:39:37.740Z,8.37
2018-05-15T02:42:05.476Z,7.80
2018-05-15T02:44:34.150Z,7.40
2018-05-15T02:47:02.629Z,7.20
2018-05-15T02:49:30.896Z,7.40
2018-05-15T02:51:58.377Z,7.43
2018-05-15T02:54:26.605Z,6.40
2018-05-15T02:56:54.080Z,6.27
2018-05-15T02:59:21.544Z,5.90
2018-05-15T03:01:49.027Z,6.87
2018-05-15T03:04:17.248Z,7.60
2018-05-15T03:06:44.734Z,7.00
2018-05-15T03:09:12.198Z,6.27
2018-05-15T03:11:39.726Z,7.07
2018-05-15T03:14:07.169Z,6.50
2018-05-15T03:16:34.636Z,7.10
2018-05-15T03:19:02.124Z,6.90
2018-05-15T03:21:29.606Z,7.87
2018-05-15T03:23:57.079Z,8.43
2018-05-15T03:26:24.568Z,9.20
2018-05-15T03:28:52.048Z,9.80
2018-05-15T03:31:19.516Z,9.80
2018-05-15T03:33:47.030Z,10.20
2018-05-15T03:36:14.597Z,10.97
2018-05-15T03:38:42.092Z,10.50
2018-05-15T03:41:09.556Z,9.77
2018-05-15T03:43:37.035Z,9.13
2018-05-15T03:46:05.301Z,10.13
2018-05-15T03:48:32.784Z,9.40
2018-05-15T03:51:00.272Z,8.63
2018-05-15T03:53:27.786Z,7.47
2018-05-15T03:55:56.020Z,6.90
2018-05-15T03:58:23.480Z,7.20
2018-05-15T04:01:02.858Z,7.73
2018-05-15T04:03:43.150Z,7.80
2018-05-15T04:06:22.400Z,7.63
2018-05-15T04:08:49.857Z,7.27
2018-05-15T04:11:17.411Z,7.20
2018-05-15T04:13:44.863Z,7.87
2018-05-15T04:16:12.362Z,7.33
2018-05-15T04:18:39.836Z,7.50
2018-05-15T04:21:07.325Z,6.10
2018-05-15T04:23:34.801Z,7.90
2018-05-15T04:26:02.270Z,6.87
2018-05-15T04:28:29.807Z,7.40
2018-05-15T04:30:57.212Z,7.60
2018-05-15T04:33:24.690Z,7.00
2018-05-15T04:35:52.145Z,6.60
2018-05-15T04:38:19.624Z,7.83
2018-05-15T04:40:47.109Z,6.70
2018-05-15T04:43:14.643Z,7.20
2018-05-15T04:45:42.114Z,7.13
2018-05-15T04:48:09.594Z,7.20
2018-05-15T04:50:37.113Z,7.17
2018-05-15T04:53:05.328Z,7.27
2018-05-15T04:55:32.800Z,7.97
2018-05-15T04:58:00.259Z,6.80
2018-05-15T05:00:27.797Z,7.77
2018-05-15T05:02:55.275Z,7.47
2018-05-15T05:05:22.734Z,7.77
2018-05-15T05:07:50.223Z,7.60
2018-05-15T05:10:17.816Z,7.03
2018-05-15T05:12:45.290Z,7.07
2018-05-15T05:15:12.780Z,7.33
2018-05-15T05:17:40.260Z,6.73
2018-05-15T05:20:07.744Z,7.40
2018-05-15T05:22:35.249Z,7.90
2018-05-15T05:25:02.714Z,6.97
2018-05-15T05:27:30.252Z,8.33
2018-05-15T05:29:57.712Z,7.60
2018-05-15T05:32:25.189Z,7.67
2018-05-15T05:34:52.681Z,7.17
2018-05-15T05:37:21.065Z,8.37
2018-05-15T05:39:49.303Z,7.17
2018-05-15T05:42:16.807Z,7.70
2018-05-15T05:44:44.614Z,7.13
2018-05-15T05:47:12.078Z,7.37
2018-05-15T05:49:40.397Z,8.07
2018-05-15T05:52:07.966Z,7.97
2018-05-15T05:54:36.144Z,7.53
2018-05-15T05:57:04.392Z,7.90
2018-05-15T05:59:31.877Z,7.40
2018-05-15T06:02:00.108Z,7.80
2018-05-15T06:04:27.641Z,8.13
2018-05-15T06:06:55.100Z,9.17
2018-05-15T06:09:22.563Z,8.00
2018-05-15T06:11:50.424Z,7.90
2018-05-15T06:14:17.992Z,9.27
2018-05-15T06:16:46.211Z,7.20
2018-05-15T06:19:13.677Z,8.70
2018-05-15T06:21:41.151Z,7.40
2018-05-15T06:24:09.608Z,8.23
2018-05-15T06:26:37.108Z,8.60
2018-05-15T06:29:04.676Z,8.60
2018-05-15T06:31:32.152Z,8.50
2018-05-15T06:33:59.612Z,7.60
2018-05-15T06:36:27.130Z,7.67
2018-05-15T06:38:54.697Z,8.27
2018-05-15T06:41:22.212Z,9.27
2018-05-15T06:43:49.659Z,8.33
2018-05-15T06:46:17.158Z,9.00
2018-05-15T06:48:45.395Z,9.00
2018-05-15T06:51:12.873Z,8.23
2018-05-15T06:53:40.383Z,8.57
2018-05-15T06:56:07.841Z,8.77
2018-05-15T06:58:35.303Z,8.23
2018-05-15T07:01:02.896Z,8.77
2018-05-15T07:03:30.392Z,7.77
2018-05-15T07:05:58.612Z,9.40
2018-05-15T07:08:26.063Z,8.07
2018-05-15T07:10:53.544Z,8.17
2018-05-15T07:13:21.003Z,7.70
2018-05-15T07:15:48.480Z,7.80
2018-05-15T07:18:15.960Z,8.30
2018-05-15T07:20:44.251Z,7.77
2018-05-15T07:23:11.712Z,8.00
2018-05-15T07:25:39.187Z,8.43
2018-05-15T07:28:06.668Z,7.50
2018-05-15T07:30:34.184Z,7.80
2018-05-15T07:33:01.724Z,6.87
2018-05-15T07:35:29.157Z,6.80
2018-05-15T07:37:56.668Z,7.10
2018-05-15T07:40:24.154Z,7.43
2018-05-15T07:42:51.607Z,7.87
2018-05-15T07:45:19.172Z,6.10
2018-05-15T07:47:46.556Z,6.80
2018-05-15T07:50:14.012Z,6.93
2018-05-15T07:52:41.496Z,7.63
2018-05-15T07:55:08.996Z,6.63
2018-05-15T07:57:36.451Z,6.97
2018-05-15T08:00:03.945Z,6.43
2018-05-15T08:02:31.404Z,6.30
2018-05-15T08:04:58.894Z,6.90
2018-05-15T08:07:27.153Z,5.60
2018-05-15T08:09:54.632Z,6.33
2018-05-15T08:12:22.881Z,6.90
2018-05-15T08:14:50.331Z,6.27
2018-05-15T08:17:17.914Z,5.50
2018-05-15T08:19:45.368Z,5.60
2018-05-15T08:22:12.888Z,6.10
2018-05-15T08:24:40.317Z,5.80
2018-05-15T08:27:07.795Z,6.27
2018-05-15T08:29:35.271Z,5.50
2018-05-15T08:32:02.717Z,6.27
2018-05-15T08:34:30.208Z,5.63
2018-05-15T08:36:57.655Z,6.17
2018-05-15T08:39:25.117Z,6.07
2018-05-15T08:41:52.605Z,6.03
2018-05-15T08:44:20.853Z,6.50
2018-05-15T08:46:48.308Z,5.30
2018-05-15T08:49:15.813Z,5.57
2018-05-15T08:51:43.286Z,5.17
2018-05-15T08:54:10.747Z,5.30
2018-05-15T08:56:38.219Z,4.90
2018-05-15T08:59:05.667Z,5.13
2018-05-15T09:01:33.132Z,4.77
2018-05-15T09:04:00.669Z,4.90
2018-05-15T09:06:28.152Z,5.30
2018-05-15T09:08:55.623Z,4.10
2018-05-15T09:11:23.071Z,5.10
2018-05-15T09:13:50.529Z,4.77
2018-05-15T09:16:18.004Z,4.50
2018-05-15T09:18:45.629Z,4.50
2018-05-15T09:21:13.127Z,5.37
2018-05-15T09:23:40.582Z,4.40
2018-05-15T09:26:08.814Z,5.70
2018-05-15T09:28:36.292Z,5.33
2018-05-15T09:31:03.748Z,5.40
2018-05-15T09:33:31.224Z,4.40
2018-05-15T09:35:58.684Z,5.13
2018-05-15T09:38:26.168Z,3.93
2018-05-15T09:40:53.636Z,5.30
2018-05-15T09:43:29.533Z,5.17
2018-05-15T09:45:57.012Z,4.80
2018-05-15T09:48:24.492Z,5.00
2018-05-15T09:50:51.973Z,6.03
2018-05-15T09:53:19.464Z,5.30
2018-05-15T09:55:46.929Z,5.63
2018-05-15T09:58:14.411Z,5.93
2018-05-15T10:00:41.864Z,5.70
2018-05-15T10:03:09.365Z,5.57
2018-05-15T10:05:37.589Z,5.40
2018-05-15T10:08:05.131Z,4.70
2018-05-15T10:10:32.585Z,5.70
2018-05-15T10:13:00.204Z,6.50
2018-05-15T10:15:27.722Z,6.10
2018-05-15T10:17:55.173Z,6.30
2018-05-15T10:20:22.636Z,6.67
2018-05-15T10:22:50.124Z,7.10
2018-05-15T10:25:17.637Z,5.13
2018-05-15T10:27:45.115Z,4.70
2018-05-15T10:30:12.573Z,5.43
2018-05-15T10:32:40.052Z,4.70
2018-05-15T10:35:07.603Z,5.10
2018-05-15T10:37:35.084Z,4.50
2018-05-15T10:40:02.583Z,5.03
2018-05-15T10:42:30.045Z,4.30
2018-05-15T10:44:57.529Z,4.00
2018-05-15T10:47:25.019Z,4.10
2018-05-15T10:49:52.492Z,5.70
2018-05-15T10:52:20.744Z,4.40
2018-05-15T10:54:48.215Z,4.40
2018-05-15T10:57:15.676Z,4.00
2018-05-15T10:59:43.155Z,4.50
2018-05-15T11:02:11.392Z,4.77
2018-05-15T11:04:38.876Z,4.20
2018-05-15T11:07:06.356Z,4.00
2018-05-15T11:09:34.619Z,4.57
2018-05-15T11:12:02.873Z,3.50
2018-05-15T11:14:30.356Z,4.70
2018-05-15T11:16:58.612Z,4.40
2018-05-15T11:19:37.750Z,4.70
2018-05-15T11:22:17.156Z,3.77
2018-05-15T11:24:51.300Z,3.50
2018-05-15T11:27:19.537Z,4.20
2018-05-15T11:29:47.026Z,3.50
2018-05-15T11:32:14.604Z,4.00
2018-05-15T11:34:42.055Z,3.70
2018-05-15T11:37:09.537Z,4.20
2018-05-15T11:39:37.012Z,3.90
2018-05-15T11:42:04.473Z,3.43
2018-05-15T11:44:31.949Z,3.57
2018-05-15T11:46:59.488Z,4.63
2018-05-15T11:49:27.606Z,4.07
2018-05-15T11:51:55.181Z,3.90
2018-05-15T11:54:21.933Z,4.23
2018-05-15T11:56:50.177Z,4.53
2018-05-15T11:59:17.644Z,4.27
2018-05-15T12:01:45.093Z,3.87
2018-05-15T12:04:12.576Z,3.87
2018-05-15T12:06:40.174Z,3.37
2018-05-15T12:09:07.582Z,3.67
2018-05-15T12:11:34.983Z,4.30
2018-05-15T12:14:02.447Z,4.20
2018-05-15T12:16:29.933Z,3.80
2018-05-15T12:18:57.444Z,3.93
2018-05-15T12:21:25.684Z,3.87
2018-05-15T12:23:53.928Z,3.67
2018-05-15T12:26:21.405Z,2.90
2018-05-15T12:28:48.884Z,4.33
2018-05-15T12:31:16.400Z,3.70
2018-05-15T12:33:43.885Z,4.33
2018-05-15T12:36:11.360Z,3.97
2018-05-15T12:38:38.828Z,4.10
2018-05-15T12:41:06.319Z,3.80
2018-05-15T12:43:33.777Z,4.07
2018-05-15T12:46:01.248Z,3.20
2018-05-15T12:48:28.813Z,3.90
2018-05-15T12:50:56.273Z,3.47
2018-05-15T12:53:23.748Z,3.13
2018-05-15T12:55:51.216Z,3.70
2018-05-15T12:58:18.692Z,2.50
2018-05-15T13:00:46.149Z,3.00
2018-05-15T13:03:13.652Z,3.17
2018-05-15T13:05:41.104Z,3.10
2018-05-15T13:08:08.557Z,3.37
2018-05-15T13:10:36.124Z,4.10
2018-05-15T13:13:04.364Z,3.77
2018-05-15T13:15:31.820Z,3.47
2018-05-15T13:17:59.276Z,3.43
2018-05-15T13:20:26.758Z,3.60
2018-05-15T13:22:54.996Z,3.37
2018-05-15T13:25:22.482Z,3.80
2018-05-15T13:27:50.088Z,3.70
2018-05-15T13:30:17.573Z,4.07
2018-05-15T13:32:45.796Z,3.30
2018-05-15T13:35:13.287Z,3.80
2018-05-15T13:37:40.756Z,3.70
2018-05-15T13:40:08.293Z,3.63
2018-05-15T13:42:35.741Z,3.70
2018-05-15T13:45:03.230Z,3.30
2018-05-15T13:47:30.704Z,3.40
2018-05-15T13:49:58.185Z,3.53
2018-05-15T13:52:25.660Z,3.67
2018-05-15T13:54:53.882Z,3.47
2018-05-15T13:57:21.363Z,3.30
2018-05-15T13:59:48.842Z,3.10
2018-05-15T14:02:17.088Z,2.87
2018-05-15T14:04:44.569Z,3.30
2018-05-15T14:07:12.048Z,2.90
2018-05-15T14:09:40.299Z,3.00
2018-05-15T14:12:07.756Z,2.60
2018-05-15T14:14:35.234Z,2.70
2018-05-15T14:17:03.462Z,2.90
2018-05-15T14:19:30.958Z,2.70
2018-05-15T14:21:58.435Z,2.90
2018-05-15T14:24:26.661Z,2.80
2018-05-15T14:26:54.149Z,2.40
2018-05-15T14:29:21.605Z,2.27
2018-05-15T14:31:49.118Z,2.17
2018-05-15T14:34:16.572Z,1.90
2018-05-15T14:36:44.026Z,2.30
2018-05-15T14:39:11.488Z,2.70
2018-05-15T14:44:40.848Z,2.70
2018-05-15T14:47:08.338Z,2.40
2018-05-15T14:49:35.792Z,2.57
2018-05-15T14:52:03.367Z,2.60
2018-05-15T14:54:31.725Z,2.43
2018-05-15T14:56:59.221Z,1.87
2018-05-15T14:59:26.787Z,2.27
2018-05-15T15:01:54.245Z,2.13
2018-05-15T15:04:21.694Z,1.80
2018-05-15T15:06:49.176Z,2.13
2018-05-15T15:09:16.636Z,1.77
2018-05-15T15:11:44.113Z,2.03
2018-05-15T15:14:11.591Z,2.50
2018-05-15T15:16:39.072Z,2.00
2018-05-15T15:19:06.520Z,1.80
2018-05-15T15:21:34.001Z,2.37
2018-05-15T15:24:01.482Z,2.20
2018-05-15T15:26:28.941Z,2.20
2018-05-15T15:28:56.459Z,1.97
2018-05-15T15:31:24.872Z,2.17
2018-05-15T15:33:52.353Z,2.13
2018-05-15T15:36:19.805Z,2.50
2018-05-15T15:38:47.276Z,2.30
2018-05-15T15:41:14.734Z,2.93
2018-05-15T15:43:42.223Z,2.70
2018-05-15T15:46:10.453Z,2.57
2018-05-15T15:48:37.925Z,3.07
2018-05-15T15:51:05.422Z,2.70
2018-05-15T15:53:33.657Z,2.73
2018-05-15T15:56:01.133Z,3.13
2018-05-15T15:58:28.622Z,2.53
2018-05-15T16:00:57.108Z,2.80
2018-05-15T16:03:25.333Z,4.00
2018-05-15T16:05:52.801Z,3.20
2018-05-15T16:08:20.309Z,3.30
2018-05-15T16:10:47.765Z,3.13
2018-05-15T16:13:15.224Z,2.90
2018-05-15T16:15:42.784Z,3.50
2018-05-15T16:18:10.177Z,2.90
2018-05-15T16:20:37.651Z,3.77
2018-05-15T16:23:05.194Z,4.10
2018-05-15T16:25:33.436Z,3.97
2018-05-15T16:28:00.920Z,11.03
2018-05-15T16:30:28.620Z,7.40
2018-05-15T16:32:56.088Z,3.87
2018-05-15T16:35:23.550Z,6.77
2018-05-15T16:37:51.804Z,4.40
2018-05-15T16:40:19.308Z,32.10
2018-05-15T16:42:46.768Z,7.50
2018-05-15T16:45:14.224Z,3.97
2018-05-15T16:47:42.465Z,3.60
2018-05-15T16:50:09.975Z,3.77
2018-05-15T16:52:37.440Z,4.33
2018-05-15T16:55:04.921Z,3.73
2018-05-15T16:57:32.392Z,4.30
2018-05-15T16:59:59.890Z,4.03
2018-05-15T17:02:27.352Z,4.77
2018-05-15T17:04:54.807Z,3.77
2018-05-15T17:07:22.425Z,4.80
2018-05-15T17:09:49.901Z,4.70
2018-05-15T17:12:17.350Z,4.30
2018-05-15T17:14:44.831Z,4.20
2018-05-15T17:17:12.312Z,4.50
2018-05-15T17:19:39.867Z,4.53
2018-05-15T17:22:07.361Z,4.60
2018-05-15T17:24:34.859Z,4.47
2018-05-15T17:27:02.344Z,4.60
2018-05-15T17:29:29.841Z,4.90
2018-05-15T17:31:57.297Z,4.10
2018-05-15T17:34:24.776Z,4.23
2018-05-15T17:36:52.395Z,4.70
2018-05-15T17:39:19.876Z,4.03
2018-05-15T17:41:47.329Z,4.77
2018-05-15T17:44:14.793Z,4.50
2018-05-15T17:46:42.283Z,4.90
2018-05-15T17:49:09.757Z,4.80
2018-05-15T17:51:37.972Z,5.03
2018-05-15T17:54:05.447Z,3.83
2018-05-15T17:56:33.669Z,4.63
2018-05-15T17:59:01.167Z,4.90
2018-05-15T18:01:28.611Z,4.57
2018-05-15T18:03:56.083Z,4.60
2018-05-15T18:06:23.658Z,4.50
2018-05-15T18:08:51.112Z,5.07
2018-05-15T18:11:18.564Z,5.40
2018-05-15T18:13:46.047Z,4.93
2018-05-15T18:16:13.493Z,5.00
2018-05-15T18:18:40.967Z,5.20
2018-05-15T18:21:08.476Z,4.60
2018-05-15T18:23:36.221Z,4.37
2018-05-15T18:26:04.467Z,4.73
2018-05-15T18:28:31.924Z,5.80
2018-05-15T18:30:59.408Z,5.10
2018-05-15T18:33:27.648Z,5.40
2018-05-15T18:35:55.112Z,5.20
2018-05-15T18:38:22.583Z,4.83
2018-05-15T18:40:50.053Z,5.13
2018-05-15T18:43:18.296Z,5.17
2018-05-15T18:45:46.544Z,4.93
2018-05-15T18:48:14.025Z,6.20
2018-05-15T18:50:41.496Z,6.10
2018-05-15T18:53:09.023Z,6.27
2018-05-15T18:55:36.487Z,5.23
2018-05-15T18:58:03.977Z,5.20
2018-05-15T19:00:31.429Z,7.13
2018-05-15T19:02:58.912Z,5.40
2018-05-15T19:05:26.387Z,4.67
2018-05-15T19:07:53.836Z,4.90
2018-05-15T19:10:21.403Z,5.17
2018-05-15T19:12:49.636Z,5.50
2018-05-15T19:15:17.122Z,5.23
2018-05-15T19:17:45.372Z,5.23
2018-05-15T19:20:12.863Z,5.00
2018-05-15T19:22:40.344Z,5.03
2018-05-15T19:25:07.804Z,5.37
2018-05-15T19:27:35.285Z,5.47
2018-05-15T19:30:02.743Z,5.60
2018-05-15T19:32:40.639Z,5.70
2018-05-15T19:35:08.208Z,5.90
2018-05-15T19:37:35.676Z,5.07
2018-05-15T19:40:18.169Z,6.30
2018-05-15T19:42:45.704Z,7.00
2018-05-15T19:45:14.033Z,6.97
2018-05-15T19:47:41.432Z,7.07
2018-05-15T19:50:09.686Z,6.70
2018-05-15T19:52:38.017Z,7.47
2018-05-15T19:55:05.495Z,7.40
2018-05-15T19:57:32.986Z,6.67
2018-05-15T20:00:00.663Z,7.03
2018-05-15T20:02:28.915Z,7.63
2018-05-15T20:04:56.392Z,8.50
2018-05-15T20:07:23.887Z,7.40
2018-05-15T20:09:51.367Z,7.20
2018-05-15T20:12:19.044Z,7.70
2018-05-15T20:14:47.684Z,8.30
2018-05-15T20:17:15.163Z,7.87
2018-05-15T20:19:42.640Z,7.83
2018-05-15T20:22:10.392Z,7.10
2018-05-15T20:24:37.944Z,8.70
2018-05-15T20:27:05.524Z,7.00
2018-05-15T20:29:32.997Z,7.00
2018-05-15T20:32:00.551Z,7.73
2018-05-15T20:34:28.810Z,7.03
2018-05-15T20:36:56.645Z,7.40
2018-05-15T20:39:24.183Z,8.20
2018-05-15T20:41:51.660Z,8.23
2018-05-15T20:44:19.888Z,8.80
2018-05-15T20:46:48.392Z,8.80
2018-05-15T20:49:15.897Z,7.90
2018-05-15T20:51:43.381Z,7.10
2018-05-15T20:54:10.856Z,8.07
2018-05-15T20:56:38.320Z,7.57
2018-05-15T20:59:05.800Z,7.60
2018-05-15T21:01:33.288Z,7.93
2018-05-15T21:04:00.859Z,7.87
2018-05-15T21:06:28.315Z,8.13
2018-05-15T21:08:55.772Z,7.33
2018-05-15T21:11:23.245Z,7.37
2018-05-15T21:13:50.696Z,7.60
2018-05-15T21:16:18.163Z,7.33
2018-05-15T21:18:45.639Z,6.87
2018-05-15T21:21:13.096Z,7.73
2018-05-15T21:23:40.621Z,8.30
2018-05-15T21:26:08.107Z,8.10
2018-05-15T21:28:35.596Z,7.20
2018-05-15T21:31:03.067Z,8.20
2018-05-15T21:33:31.324Z,7.00
2018-05-15T21:35:58.781Z,7.03
2018-05-15T21:38:26.243Z,7.07
2018-05-15T21:40:53.720Z,6.23
2018-05-15T21:43:21.967Z,6.87
2018-05-15T21:45:49.496Z,7.07
2018-05-15T21:48:16.948Z,8.00
2018-05-15T21:50:44.423Z,7.03
2018-05-15T21:53:11.888Z,7.53
2018-05-15T21:55:39.371Z,7.50
2018-05-15T21:58:06.856Z,7.17
2018-05-15T22:00:34.408Z,7.80
2018-05-15T22:03:02.684Z,8.07
2018-05-15T22:05:30.906Z,6.50
2018-05-15T22:07:58.381Z,7.43
2018-05-15T22:10:25.848Z,6.77
2018-05-15T22:13:05.319Z,7.93
2018-05-15T22:15:45.308Z,7.70
2018-05-15T22:18:24.640Z,7.20
2018-05-15T22:21:03.880Z,8.00
2018-05-15T22:23:30.884Z,8.30
2018-05-15T22:25:59.116Z,7.40
2018-05-15T22:28:26.577Z,8.13
2018-05-15T22:30:54.076Z,8.87
2018-05-15T22:33:22.312Z,7.37
2018-05-15T22:35:49.792Z,7.63
2018-05-15T22:38:17.263Z,7.07
2018-05-15T22:40:45.552Z,8.43
2018-05-15T22:43:13.792Z,9.23
2018-05-15T22:45:41.267Z,8.23
2018-05-15T22:48:08.725Z,7.27
2018-05-15T22:50:36.195Z,9.37
2018-05-15T22:53:04.422Z,7.60
2018-05-15T22:55:31.911Z,8.03
2018-05-15T22:57:59.380Z,8.77
2018-05-15T23:00:26.831Z,7.90
2018-05-15T23:02:54.296Z,9.27
2018-05-15T23:05:21.787Z,9.40
2018-05-15T23:07:49.236Z,9.00
2018-05-15T23:10:17.520Z,9.50
2018-05-15T23:12:44.977Z,9.90
2018-05-15T23:15:12.451Z,10.07
2018-05-15T23:17:39.920Z,10.00
2018-05-15T23:20:07.401Z,10.67
2018-05-15T23:22:41.632Z,10.60
2018-05-15T23:25:09.107Z,10.10
2018-05-15T23:27:36.554Z,9.37
2018-05-15T23:30:04.045Z,10.23
2018-05-15T23:32:31.632Z,9.73
2018-05-15T23:34:59.087Z,10.73
2018-05-15T23:37:26.560Z,11.10
2018-05-15T23:39:54.036Z,10.47
2018-05-15T23:42:21.519Z,13.70
2018-05-15T23:44:48.972Z,12.90
2018-05-15T23:47:16.452Z,12.33
2018-05-15T23:49:43.915Z,12.10
2018-05-15T23:52:11.411Z,12.73
2018-05-15T23:54:38.869Z,14.07
2018-05-15T23:57:06.387Z,13.20
2018-05-15T23:59:33.908Z,13.40
